Time;durP1;ratioP1;P1;durP2;ratioP2;P2;SDS_P1;SDS_P2;PMS_P1;PMS_P2;Temp;Humidity;BMP_temperature;BMP_pressure;BME280_temperature;BME280_humidity;BME280_pressure;Samples;Min_cycle;Max_cycle;Signal;HPM_P1;HPM_P2
2022/07/06 00:01:09;;;;;;;2.40;1.00;;;19.80;63.10;;;;;;4979488;28;20430;-80
2022/07/06 00:03:35;;;;;;;2.95;0.90;;;19.70;63.10;;;;;;4979292;28;20495;-80
2022/07/06 00:06:01;;;;;;;1.10;1.00;;;19.70;63.10;;;;;;4962257;28;20109;-80
2022/07/06 00:08:26;;;;;;;1.38;0.95;;;19.70;63.20;;;;;;4979003;28;20109;-79
2022/07/06 00:10:52;;;;;;;1.55;1.17;;;19.70;63.20;;;;;;4981302;28;20450;-82
2022/07/06 00:13:18;;;;;;;0.60;0.60;;;19.70;63.60;;;;;;4962484;28;20023;-79
2022/07/06 00:15:43;;;;;;;2.30;1.05;;;19.70;63.60;;;;;;4964619;28;20031;-81
2022/07/06 00:18:09;;;;;;;0.95;0.93;;;19.70;63.80;;;;;;4981962;28;20049;-81
2022/07/06 00:20:35;;;;;;;1.88;1.10;;;19.80;64.20;;;;;;4983053;28;20034;-81
2022/07/06 00:23:00;;;;;;;2.53;0.80;;;19.80;64.40;;;;;;4981113;28;20472;-81
2022/07/06 00:25:26;;;;;;;0.98;0.85;;;19.80;64.50;;;;;;4979420;28;20027;-81
2022/07/06 00:27:52;;;;;;;1.15;0.95;;;19.80;64.50;;;;;;4978474;28;20023;-81
2022/07/06 00:30:18;;;;;;;4.20;1.17;;;19.80;64.60;;;;;;4978580;28;20027;-81
2022/07/06 00:32:43;;;;;;;1.25;1.00;;;19.70;64.80;;;;;;4983836;28;20042;-80
2022/07/06 00:35:09;;;;;;;1.15;1.10;;;19.60;65.30;;;;;;4982146;28;20039;-81
2022/07/06 00:37:34;;;;;;;0.88;0.80;;;19.60;65.80;;;;;;4965424;28;20031;-81
2022/07/06 00:40:00;;;;;;;1.08;1.00;;;19.50;66.30;;;;;;4982030;28;20076;-81
2022/07/06 00:42:26;;;;;;;1.85;0.80;;;19.30;66.90;;;;;;4981773;28;20116;-82
2022/07/06 00:44:51;;;;;;;1.00;1.00;;;19.20;67.60;;;;;;4980760;28;20143;-81
2022/07/06 00:47:17;;;;;;;0.70;0.70;;;19.10;68.20;;;;;;4982249;28;20023;-81
2022/07/06 00:52:27;;;;;;;1.95;1.17;;;18.90;69.30;;;;;;4982420;28;20029;-81
2022/07/06 00:54:54;;;;;;;2.08;1.10;;;19.00;69.90;;;;;;4982902;28;20027;-81
2022/07/06 00:57:20;;;;;;;1.65;1.20;;;19.00;70.00;;;;;;4981792;28;20081;-81
2022/07/06 00:59:46;;;;;;;2.80;1.00;;;18.90;70.10;;;;;;4971949;28;20019;-81
2022/07/06 01:02:11;;;;;;;5.28;1.05;;;18.90;70.50;;;;;;4982575;28;20105;-81
2022/07/06 01:04:37;;;;;;;4.25;1.17;;;18.80;70.70;;;;;;4981291;28;20027;-81
2022/07/06 01:07:03;;;;;;;1.60;1.35;;;18.80;71.10;;;;;;4981665;28;20106;-81
2022/07/06 01:09:28;;;;;;;1.13;1.02;;;18.80;71.30;;;;;;4982593;28;20031;-81
2022/07/06 01:11:54;;;;;;;1.67;1.27;;;18.80;71.40;;;;;;4981724;28;20050;-81
2022/07/06 01:14:20;;;;;;;1.80;1.38;;;18.80;71.60;;;;;;4982304;28;20027;-81
2022/07/06 01:16:46;;;;;;;3.13;1.02;;;18.70;71.50;;;;;;4982176;28;20390;-81
2022/07/06 01:19:12;;;;;;;1.33;1.15;;;18.70;71.60;;;;;;4983172;28;20023;-81
2022/07/06 01:21:38;;;;;;;0.93;0.90;;;18.70;71.80;;;;;;4981992;28;20033;-81
2022/07/06 01:24:04;;;;;;;0.90;0.90;;;18.70;71.80;;;;;;4963615;28;20019;-81
2022/07/06 01:26:30;;;;;;;3.67;1.00;;;18.70;72.00;;;;;;4979720;28;20023;-81
2022/07/06 01:28:56;;;;;;;2.08;0.95;;;18.70;72.20;;;;;;4982359;28;20054;-80
2022/07/06 01:31:24;;;;;;;1.38;1.15;;;18.70;72.10;;;;;;4981711;28;20027;-81
2022/07/06 01:33:51;;;;;;;1.15;0.90;;;18.70;72.10;;;;;;4966232;28;20099;-80
2022/07/06 01:36:18;;;;;;;0.95;0.90;;;18.60;72.50;;;;;;4980624;28;20063;-80
2022/07/06 01:38:52;;;;;;;1.92;0.85;;;18.50;73.00;;;;;;4981200;28;20023;-80
2022/07/06 01:41:18;;;;;;;1.40;1.00;;;18.50;73.50;;;;;;4963099;28;20049;-81
2022/07/06 01:43:44;;;;;;;1.25;1.15;;;18.40;73.90;;;;;;4980587;28;20051;-79
2022/07/06 01:46:10;;;;;;;1.85;1.30;;;18.40;74.30;;;;;;4980899;28;20038;-81
2022/07/06 01:48:37;;;;;;;1.10;0.95;;;18.40;74.50;;;;;;4983323;28;20017;-79
2022/07/06 01:51:04;;;;;;;1.20;1.05;;;18.30;74.70;;;;;;4963171;28;20093;-79
2022/07/06 01:53:29;;;;;;;1.13;0.93;;;18.30;75.00;;;;;;4980425;28;20026;-80
2022/07/06 01:55:55;;;;;;;1.15;1.05;;;18.30;75.10;;;;;;4980918;28;20034;-80
2022/07/06 01:58:21;;;;;;;0.98;0.80;;;18.30;75.40;;;;;;4980758;28;20306;-81
2022/07/06 02:00:47;;;;;;;2.90;0.85;;;18.20;76.30;;;;;;4981309;28;20041;-81
2022/07/06 02:03:13;;;;;;;1.13;0.85;;;18.20;75.90;;;;;;4982160;28;20027;-80
2022/07/06 02:05:39;;;;;;;3.40;1.10;;;18.20;76.10;;;;;;4981892;28;20049;-81
2022/07/06 02:08:04;;;;;;;1.23;1.00;;;18.10;76.30;;;;;;4980457;28;20031;-80
2022/07/06 02:10:30;;;;;;;1.67;0.95;;;18.10;76.60;;;;;;4981442;28;20033;-80
2022/07/06 02:12:55;;;;;;;1.23;0.80;;;18.10;77.00;;;;;;4981268;28;20026;-80
2022/07/06 02:15:21;;;;;;;4.88;1.10;;;18.00;77.40;;;;;;4980635;28;20027;-80
2022/07/06 02:17:47;;;;;;;1.17;0.80;;;18.00;77.90;;;;;;4980800;28;20035;-80
2022/07/06 02:20:12;;;;;;;0.80;0.80;;;18.00;78.30;;;;;;4963440;28;20070;-81
2022/07/06 02:22:38;;;;;;;1.10;0.90;;;18.00;78.50;;;;;;4979655;28;20030;-80
2022/07/06 02:25:04;;;;;;;0.98;0.82;;;17.90;78.80;;;;;;4980883;28;20038;-80
2022/07/06 02:27:30;;;;;;;1.23;1.13;;;17.80;79.20;;;;;;4963258;28;20413;-80
2022/07/06 02:29:56;;;;;;;2.38;0.90;;;17.80;80.10;;;;;;4981672;28;20077;-80
2022/07/06 02:32:22;;;;;;;1.20;1.10;;;17.70;80.10;;;;;;4979845;28;20504;-80
2022/07/06 02:34:48;;;;;;;1.25;0.70;;;17.70;80.70;;;;;;4979766;28;20058;-81
2022/07/06 02:37:14;;;;;;;1.08;1.00;;;17.70;81.30;;;;;;4980346;28;20494;-80
2022/07/06 02:39:39;;;;;;;1.95;1.08;;;17.60;82.00;;;;;;4963148;28;20027;-81
2022/07/06 02:42:05;;;;;;;1.40;0.73;;;17.60;83.20;;;;;;4983298;28;20030;-80
2022/07/06 02:44:31;;;;;;;1.45;1.10;;;17.50;83.00;;;;;;4997203;28;20026;-80
2022/07/06 02:46:57;;;;;;;1.23;1.13;;;17.50;83.50;;;;;;4997531;28;20038;-79
2022/07/06 02:49:22;;;;;;;1.65;1.02;;;17.50;83.60;;;;;;4997900;28;20039;-80
2022/07/06 02:51:48;;;;;;;1.67;1.02;;;17.50;84.00;;;;;;4997526;28;20061;-80
2022/07/06 02:54:14;;;;;;;1.30;1.13;;;17.40;84.50;;;;;;4985787;28;20026;-80
2022/07/06 02:56:39;;;;;;;4.20;1.10;;;17.40;85.00;;;;;;4984285;28;20027;-81
2022/07/06 02:59:05;;;;;;;1.48;0.90;;;17.30;85.70;;;;;;4977508;28;20443;-79
2022/07/06 03:01:31;;;;;;;1.10;1.02;;;17.30;85.80;;;;;;4994494;28;20039;-79
2022/07/06 03:03:56;;;;;;;1.30;1.15;;;17.30;86.00;;;;;;4993856;28;20030;-80
2022/07/06 03:06:22;;;;;;;1.05;0.98;;;17.20;86.20;;;;;;4994270;28;20023;-79
2022/07/06 03:08:48;;;;;;;1.15;1.00;;;17.20;86.50;;;;;;4982737;28;20038;-81
2022/07/06 03:11:13;;;;;;;1.52;1.00;;;17.10;86.70;;;;;;4982067;28;20042;-81
2022/07/06 03:13:39;;;;;;;0.90;0.90;;;17.10;86.80;;;;;;4979124;28;20045;-79
2022/07/06 03:16:33;;;;;;;1.73;1.08;;;17.10;87.20;;;;;;4978986;28;20086;-80
2022/07/06 03:22:52;;;;;;;3.75;1.02;;;17.10;87.30;;;;;;5003102;28;20117;-80
2022/07/06 03:36:04;;;;;;;1.13;1.02;;;17.20;88.00;;;;;;4804533;29;20040;-81
2022/07/06 03:38:30;;;;;;;1.52;0.90;;;17.10;89.10;;;;;;4807740;29;20062;-81
2022/07/06 03:42:00;;;;;;;1.10;1.10;;;17.00;88.90;;;;;;4816893;29;20039;-79
2022/07/06 03:45:17;;;;;;;0.98;0.90;;;17.00;89.60;;;;;;4884852;29;20502;-80
2022/07/06 03:47:44;;;;;;;1.92;1.27;;;17.00;90.10;;;;;;4883353;29;20037;-78
2022/07/06 03:50:12;;;;;;;1.20;0.90;;;17.00;90.20;;;;;;4964542;28;20609;-80
2022/07/06 03:52:40;;;;;;;1.17;1.00;;;17.10;90.30;;;;;;4964650;28;20023;-81
2022/07/06 03:55:12;;;;;;;1.20;1.10;;;17.10;90.30;;;;;;4962358;28;20189;-80
2022/07/06 03:57:40;;;;;;;2.65;1.05;;;17.20;90.20;;;;;;4980787;28;20054;-80
2022/07/06 04:00:07;;;;;;;1.25;1.15;;;17.20;90.10;;;;;;4982193;28;20031;-80
2022/07/06 04:02:33;;;;;;;2.20;1.48;;;17.20;90.00;;;;;;4980995;28;20099;-79
2022/07/06 04:04:59;;;;;;;1.00;0.90;;;17.20;90.10;;;;;;4979225;28;20057;-79
2022/07/06 04:07:25;;;;;;;1.35;1.23;;;17.20;90.10;;;;;;4971434;28;20026;-79
2022/07/06 04:09:51;;;;;;;1.58;1.25;;;17.20;90.10;;;;;;4987234;28;20077;-81
2022/07/06 04:12:17;;;;;;;1.40;1.27;;;17.30;90.10;;;;;;4966269;28;20399;-79
2022/07/06 04:14:43;;;;;;;0.95;0.93;;;17.30;90.10;;;;;;4981736;28;20027;-78
2022/07/06 04:19:52;;;;;;;1.83;1.10;;;17.30;90.20;;;;;;4982353;28;20495;-80
2022/07/06 04:22:18;;;;;;;2.35;1.10;;;17.40;90.10;;;;;;4985351;28;20107;-78
2022/07/06 04:24:44;;;;;;;1.02;1.02;;;17.50;90.20;;;;;;4986404;28;20034;-79
2022/07/06 04:27:09;;;;;;;1.83;1.40;;;17.50;90.00;;;;;;4984680;28;20511;-80
2022/07/06 04:29:35;;;;;;;1.20;1.10;;;17.70;89.80;;;;;;4982601;28;20023;-80
2022/07/06 04:32:01;;;;;;;1.30;1.10;;;17.90;89.40;;;;;;4985456;28;20026;-80
2022/07/06 04:34:27;;;;;;;1.33;1.08;;;18.00;88.50;;;;;;4986634;28;20036;-79
2022/07/06 04:36:52;;;;;;;2.03;1.10;;;18.20;88.40;;;;;;4967828;28;20031;-80
2022/07/06 04:39:18;;;;;;;3.35;1.40;;;18.30;87.20;;;;;;4967553;28;20114;-80
2022/07/06 04:41:44;;;;;;;0.98;0.80;;;18.40;86.70;;;;;;4984504;28;20081;-80
2022/07/06 04:44:09;;;;;;;1.23;0.95;;;18.50;86.20;;;;;;4984498;28;20032;-79
2022/07/06 04:46:35;;;;;;;2.42;1.08;;;18.50;85.70;;;;;;4984489;28;20492;-79
2022/07/06 04:49:01;;;;;;;2.78;1.08;;;18.60;85.50;;;;;;4984873;28;20026;-78
2022/07/06 04:51:26;;;;;;;0.93;0.77;;;18.60;85.10;;;;;;4982746;28;20106;-80
2022/07/06 04:53:52;;;;;;;1.15;1.00;;;18.70;84.70;;;;;;4982576;28;20094;-80
2022/07/06 04:56:17;;;;;;;1.50;1.40;;;18.80;84.60;;;;;;4964652;28;20038;-79
2022/07/06 04:58:43;;;;;;;2.83;1.20;;;18.80;84.20;;;;;;4971513;28;20050;-79
2022/07/06 05:01:09;;;;;;;3.92;1.15;;;18.80;84.00;;;;;;4988585;28;20019;-79
2022/07/06 05:03:39;;;;;;;2.40;1.10;;;18.90;84.00;;;;;;4989881;28;20023;-80
2022/07/06 05:06:05;;;;;;;1.75;0.90;;;19.00;83.50;;;;;;4990317;28;20082;-79
2022/07/06 05:08:31;;;;;;;1.08;1.05;;;19.10;83.00;;;;;;4987839;28;20074;-79
2022/07/06 05:10:56;;;;;;;2.05;1.00;;;19.20;83.20;;;;;;4987981;28;20034;-80
2022/07/06 05:13:22;;;;;;;1.10;1.00;;;19.90;83.00;;;;;;4968744;28;20039;-81
2022/07/06 05:15:48;;;;;;;1.05;0.80;;;20.70;79.10;;;;;;4987279;28;20027;-79
2022/07/06 05:18:14;;;;;;;3.75;1.60;;;21.00;76.20;;;;;;4999560;23;20082;-83
2022/07/06 05:20:39;;;;;;;1.83;1.10;;;22.50;73.10;;;;;;4978232;28;20029;-83
2022/07/06 05:23:05;;;;;;;1.55;1.20;;;23.00;68.90;;;;;;4996617;28;20058;-83
2022/07/06 05:25:32;;;;;;;3.88;1.10;;;24.10;66.50;;;;;;4998436;28;20074;-84
2022/07/06 05:27:58;;;;;;;2.55;1.45;;;26.30;62.30;;;;;;4998826;28;20110;-81
2022/07/06 05:30:24;;;;;;;1.50;0.90;;;28.50;56.70;;;;;;4998882;28;20049;-82
2022/07/06 05:32:50;;;;;;;1.88;1.30;;;29.30;52.80;;;;;;4980958;28;20041;-82
2022/07/06 05:35:16;;;;;;;1.10;1.00;;;30.30;51.50;;;;;;4996342;28;20031;-84
2022/07/06 05:37:42;;;;;;;1.25;1.10;;;31.50;48.50;;;;;;4970463;28;20077;-84
2022/07/06 05:40:08;;;;;;;2.85;1.35;;;31.90;46.40;;;;;;4970754;28;20039;-83
2022/07/06 05:42:34;;;;;;;2.83;1.13;;;30.80;45.30;;;;;;4996825;28;20050;-81
2022/07/06 05:44:59;;;;;;;1.08;1.00;;;29.80;47.10;;;;;;4995568;28;20043;-85
2022/07/06 05:50:12;;;;;;;2.17;1.13;;;29.20;49.70;;;;;;4994906;28;20045;-87
2022/07/06 05:52:45;;;;;;;1.73;1.30;;;30.00;46.90;;;;;;4994271;28;20050;-84
2022/07/06 05:55:13;;;;;;;2.90;1.00;;;29.40;48.80;;;;;;4993221;28;20037;-85
2022/07/06 05:57:42;;;;;;;1.75;1.25;;;30.30;47.60;;;;;;4991593;28;20077;-85
2022/07/06 06:00:09;;;;;;;1.77;1.00;;;30.90;47.40;;;;;;4996103;28;20038;-86
2022/07/06 06:02:38;;;;;;;2.00;1.27;;;31.70;45.60;;;;;;4983306;28;20019;-85
2022/07/06 06:05:06;;;;;;;1.40;1.30;;;32.10;43.90;;;;;;4995110;28;20033;-84
2022/07/06 06:07:34;;;;;;;2.60;1.20;;;32.20;44.80;;;;;;4993722;28;20061;-85
2022/07/06 06:10:00;;;;;;;2.67;1.52;;;32.90;43.10;;;;;;4991444;28;20043;-85
2022/07/06 06:12:26;;;;;;;1.55;1.45;;;33.20;42.20;;;;;;4989281;28;20026;-86
2022/07/06 06:14:52;;;;;;;2.80;1.20;;;32.80;42.50;;;;;;4996141;28;20050;-85
2022/07/06 06:17:17;;;;;;;2.38;1.27;;;32.50;42.90;;;;;;4988603;28;20098;-86
2022/07/06 06:19:43;;;;;;;4.93;1.40;;;32.50;43.00;;;;;;4990508;28;20037;-85
2022/07/06 06:22:08;;;;;;;3.53;1.25;;;32.70;43.40;;;;;;4987702;28;20099;-86
2022/07/06 06:24:34;;;;;;;1.27;1.00;;;33.10;41.50;;;;;;4986972;28;20042;-85
2022/07/06 06:27:00;;;;;;;3.90;1.23;;;32.80;42.20;;;;;;4969850;28;20066;-84
2022/07/06 06:29:25;;;;;;;2.58;1.30;;;32.80;42.20;;;;;;4975596;28;20317;-84
2022/07/06 06:31:51;;;;;;;1.73;1.13;;;32.80;42.30;;;;;;4987751;28;20027;-85
2022/07/06 06:34:17;;;;;;;3.47;1.50;;;33.30;42.50;;;;;;4964881;28;20181;-84
2022/07/06 06:36:43;;;;;;;1.75;1.42;;;33.70;41.80;;;;;;4988299;28;20108;-83
2022/07/06 06:39:08;;;;;;;2.95;1.85;;;34.10;40.80;;;;;;5003697;28;20030;-83
2022/07/06 06:41:34;;;;;;;3.65;1.65;;;34.00;39.90;;;;;;4998686;28;20054;-83
2022/07/06 06:44:00;;;;;;;2.95;1.92;;;33.70;40.80;;;;;;4984179;28;20100;-82
2022/07/06 06:46:25;;;;;;;2.35;1.65;;;33.70;40.40;;;;;;4996015;28;20039;-82
2022/07/06 06:48:51;;;;;;;2.58;2.00;;;33.30;41.00;;;;;;4993381;28;20031;-81
2022/07/06 06:51:17;;;;;;;1.67;1.52;;;33.40;41.10;;;;;;4967368;28;20095;-83
2022/07/06 06:53:42;;;;;;;1.95;1.42;;;33.60;41.40;;;;;;4987430;28;20042;-84
2022/07/06 06:56:08;;;;;;;4.95;1.70;;;34.00;40.80;;;;;;4995587;28;20018;-83
2022/07/06 06:58:34;;;;;;;1.80;1.70;;;34.10;40.80;;;;;;4992170;28;20054;-82
2022/07/06 07:01:00;;;;;;;6.53;2.15;;;34.20;41.10;;;;;;4986367;28;20027;-81
2022/07/06 07:03:25;;;;;;;4.05;2.03;;;34.30;39.30;;;;;;4980985;28;20031;-80
2022/07/06 07:05:51;;;;;;;2.92;1.80;;;34.20;39.50;;;;;;4980634;28;20058;-81
2022/07/06 07:08:17;;;;;;;2.15;1.95;;;33.90;39.90;;;;;;4961982;28;20070;-82
2022/07/06 07:10:43;;;;;;;4.10;2.00;;;33.70;39.80;;;;;;4979502;28;20038;-83
2022/07/06 07:13:08;;;;;;;3.17;1.90;;;33.40;40.80;;;;;;4962311;28;20042;-82
2022/07/06 07:15:34;;;;;;;3.65;1.58;;;33.10;40.10;;;;;;4980272;28;20094;-82
2022/07/06 07:18:00;;;;;;;1.58;1.40;;;32.70;41.20;;;;;;4981652;28;20153;-82
2022/07/06 07:20:29;;;;;;;4.60;1.58;;;32.80;41.80;;;;;;4969399;28;20027;-82
2022/07/06 07:22:56;;;;;;;3.90;1.75;;;33.10;40.40;;;;;;4977473;28;20098;-80
2022/07/06 07:25:22;;;;;;;3.10;1.70;;;30.80;41.90;;;;;;4994482;28;20048;-81
2022/07/06 07:27:48;;;;;;;3.42;1.75;;;28.60;44.40;;;;;;4975088;28;20007;-80
2022/07/06 07:30:14;;;;;;;3.92;1.63;;;26.50;47.70;;;;;;4979503;28;20085;-81
2022/07/06 07:32:43;;;;;;;3.63;1.77;;;25.00;50.60;;;;;;4979053;28;20062;-79
2022/07/06 07:35:09;;;;;;;2.85;1.50;;;24.00;51.70;;;;;;4980558;28;20031;-79
2022/07/06 07:37:35;;;;;;;3.03;1.58;;;23.50;53.40;;;;;;4976527;28;20026;-79
2022/07/06 07:40:01;;;;;;;3.25;1.90;;;23.40;55.30;;;;;;4958837;28;20050;-81
2022/07/06 07:42:27;;;;;;;3.92;2.20;;;23.50;54.50;;;;;;4980959;28;20038;-79
2022/07/06 07:44:52;;;;;;;5.15;1.50;;;23.50;53.60;;;;;;4981184;28;20041;-79
2022/07/06 07:47:18;;;;;;;7.45;2.00;;;23.40;54.10;;;;;;4980698;28;20045;-80
2022/07/06 07:49:50;;;;;;;2.20;1.88;;;23.40;53.90;;;;;;4982762;28;20027;-87
2022/07/06 07:52:16;;;;;;;;;;;23.20;54.40;;;;;;4973868;28;20460;-88
2022/07/06 07:54:41;;;;;;;1.85;1.50;;;23.10;54.20;;;;;;4974246;28;19906;-88
2022/07/06 07:57:07;;;;;;;3.50;1.50;;;22.90;54.50;;;;;;4973689;28;20130;-89
2022/07/06 07:59:33;;;;;;;2.30;1.65;;;22.90;53.40;;;;;;4971685;28;20027;-88
2022/07/06 08:01:59;;;;;;;7.03;1.98;;;22.80;54.10;;;;;;4990998;28;20030;-88
2022/07/06 08:04:24;;;;;;;5.35;1.67;;;22.70;53.90;;;;;;4989788;28;20046;-88
2022/07/06 08:06:50;;;;;;;1.38;1.25;;;22.60;54.60;;;;;;4991786;28;20034;-87
2022/07/06 08:09:17;;;;;;;2.15;1.33;;;22.50;55.10;;;;;;4978238;28;20025;-87
2022/07/06 08:11:43;;;;;;;3.15;1.70;;;22.40;55.50;;;;;;4993153;28;20037;-87
2022/07/06 08:14:09;;;;;;;6.00;3.13;;;22.40;55.50;;;;;;4977098;28;20026;-87
2022/07/06 08:16:35;;;;;;;2.13;1.60;;;22.40;55.30;;;;;;4990627;28;20030;-86
2022/07/06 08:19:01;;;;;;;1.83;1.52;;;22.30;56.00;;;;;;5005018;28;20133;-85
2022/07/06 08:21:27;;;;;;;3.20;1.90;;;22.30;56.60;;;;;;4993239;28;20173;-88
2022/07/06 08:23:58;;;;;;;1.63;1.48;;;22.40;56.10;;;;;;4997970;28;20026;-86
2022/07/06 08:26:38;;;;;;;7.38;1.88;;;22.30;56.20;;;;;;4972092;28;20098;-86
2022/07/06 08:29:06;;;;;;;2.88;1.60;;;22.50;56.80;;;;;;4952495;29;20027;-85
2022/07/06 08:31:33;;;;;;;6.10;1.73;;;22.60;56.90;;;;;;4961394;28;20091;-84
2022/07/06 08:33:59;;;;;;;2.33;1.42;;;22.70;56.40;;;;;;4986997;28;20031;-85
2022/07/06 08:36:25;;;;;;;2.10;1.50;;;22.80;56.70;;;;;;4966767;28;20042;-85
2022/07/06 08:38:54;;;;;;;3.65;2.08;;;23.00;56.50;;;;;;4983016;28;20325;-85
2022/07/06 08:41:23;;;;;;;3.00;1.90;;;23.10;55.30;;;;;;4980094;28;20050;-86
2022/07/06 08:43:52;;;;;;;3.40;1.70;;;23.20;55.60;;;;;;4982903;28;20027;-83
2022/07/06 08:46:19;;;;;;;4.47;1.60;;;23.30;54.10;;;;;;4982655;28;20070;-83
2022/07/06 08:48:45;;;;;;;4.13;1.95;;;23.30;54.10;;;;;;4984935;28;20452;-83
2022/07/06 08:51:14;;;;;;;4.57;1.92;;;23.30;55.40;;;;;;4985254;28;20480;-84
2022/07/06 08:53:45;;;;;;;2.55;1.48;;;23.30;55.60;;;;;;4984126;28;20027;-82
2022/07/06 08:56:11;;;;;;;3.20;1.75;;;23.40;55.50;;;;;;4983309;28;20138;-84
2022/07/06 08:58:37;;;;;;;4.72;2.20;;;23.50;53.60;;;;;;4983329;28;20122;-85
2022/07/06 09:01:02;;;;;;;4.60;2.42;;;23.70;52.60;;;;;;4985919;28;20169;-86
2022/07/06 09:03:28;;;;;;;3.63;2.22;;;23.90;52.70;;;;;;4984001;28;20162;-85
2022/07/06 09:06:00;;;;;;;2.00;1.50;;;24.00;52.80;;;;;;4983404;28;20500;-85
2022/07/06 09:08:28;;;;;;;5.55;2.42;;;24.10;53.10;;;;;;4966224;28;20038;-87
2022/07/06 09:10:54;;;;;;;5.13;1.60;;;24.20;52.80;;;;;;4987017;28;20046;-84
2022/07/06 09:13:20;;;;;;;3.38;1.55;;;24.10;53.10;;;;;;4981958;28;20026;-83
2022/07/06 09:15:45;;;;;;;5.93;2.33;;;24.10;54.00;;;;;;4983239;28;20038;-83
2022/07/06 09:18:11;;;;;;;4.88;2.05;;;24.20;53.80;;;;;;4982634;28;20046;-84
2022/07/06 09:20:37;;;;;;;2.40;1.42;;;24.30;52.20;;;;;;4968595;28;20537;-84
2022/07/06 09:23:04;;;;;;;3.90;2.30;;;24.40;52.40;;;;;;4981559;28;20161;-82
2022/07/06 09:25:31;;;;;;;2.63;2.10;;;24.60;52.10;;;;;;4981574;28;20430;-83
2022/07/06 09:27:58;;;;;;;4.93;1.90;;;24.80;52.40;;;;;;4982588;28;20062;-84
2022/07/06 09:30:26;;;;;;;4.20;1.88;;;24.80;52.20;;;;;;4968436;28;20099;-84
2022/07/06 09:32:54;;;;;;;3.05;2.22;;;24.60;51.00;;;;;;4982429;28;20030;-87
2022/07/06 09:35:21;;;;;;;1.65;1.55;;;24.50;51.60;;;;;;4970330;28;20050;-85
2022/07/06 09:37:51;;;;;;;3.00;1.75;;;24.30;51.70;;;;;;4998058;28;20019;-85
2022/07/06 09:40:18;;;;;;;2.33;2.13;;;24.40;51.40;;;;;;4981946;28;20103;-88
2022/07/06 09:42:45;;;;;;;2.03;1.50;;;24.50;50.40;;;;;;4998391;28;20031;-86
2022/07/06 09:45:10;;;;;;;2.17;1.40;;;24.70;49.80;;;;;;4998681;28;20053;-85
2022/07/06 09:47:37;;;;;;;4.28;1.70;;;24.90;49.70;;;;;;4985455;28;20031;-83
2022/07/06 09:50:06;;;;;;;2.05;1.75;;;25.10;49.70;;;;;;4994280;28;20034;-84
2022/07/06 09:52:35;;;;;;;4.60;2.28;;;25.30;49.10;;;;;;4981060;28;20050;-82
2022/07/06 09:55:05;;;;;;;5.32;1.50;;;25.30;49.10;;;;;;4996559;28;20015;-85
2022/07/06 09:57:32;;;;;;;2.45;1.38;;;25.40;49.50;;;;;;4996426;28;20078;-82
2022/07/06 09:59:58;;;;;;;2.92;1.90;;;25.40;48.80;;;;;;4979383;28;20027;-85
2022/07/06 10:02:26;;;;;;;5.93;2.03;;;25.60;49.70;;;;;;4994883;28;20030;-84
2022/07/06 10:04:55;;;;;;;2.88;1.40;;;25.70;48.80;;;;;;4985790;28;20058;-84
2022/07/06 10:07:24;;;;;;;2.45;1.35;;;25.70;48.60;;;;;;4992903;28;20022;-85
2022/07/06 10:09:51;;;;;;;1.75;1.65;;;25.70;49.00;;;;;;4994654;28;20106;-84
2022/07/06 10:12:18;;;;;;;4.47;1.83;;;25.80;48.90;;;;;;4992360;28;20057;-83
2022/07/06 10:14:45;;;;;;;2.35;1.80;;;25.90;48.70;;;;;;4969005;28;20033;-85
2022/07/06 10:17:13;;;;;;;2.30;1.42;;;26.00;48.20;;;;;;4986867;28;20023;-84
2022/07/06 10:19:40;;;;;;;4.50;1.85;;;25.90;48.60;;;;;;4984968;28;20097;-83
2022/07/06 10:22:06;;;;;;;5.47;1.95;;;25.80;48.10;;;;;;4985702;28;20035;-83
2022/07/06 10:27:37;;;;;;;3.50;1.63;;;25.90;47.70;;;;;;4980594;28;20050;-85
2022/07/06 10:30:13;;;;;;;2.83;1.60;;;25.90;46.70;;;;;;4970046;28;20030;-84
2022/07/06 10:32:40;;;;;;;3.05;2.08;;;25.90;46.50;;;;;;4992222;28;20023;-85
2022/07/06 10:35:06;;;;;;;7.13;1.80;;;26.00;46.90;;;;;;4993334;28;20086;-85
2022/07/06 10:37:33;;;;;;;4.53;1.83;;;25.70;47.60;;;;;;4988727;28;20046;-85
2022/07/06 10:42:49;;;;;;;6.25;1.75;;;25.30;48.80;;;;;;4981754;28;20133;-84
2022/07/06 10:45:21;;;;;;;2.20;1.92;;;25.60;47.40;;;;;;4980874;28;20029;-86
2022/07/06 10:47:46;;;;;;;4.70;1.50;;;25.70;47.90;;;;;;4965431;28;20030;-84
2022/07/06 10:50:12;;;;;;;3.75;1.50;;;25.60;46.60;;;;;;4980907;28;20085;-84
2022/07/06 10:52:52;;;;;;;5.07;1.60;;;25.50;46.80;;;;;;4979125;28;20082;-87
2022/07/06 10:55:39;;;;;;;3.80;2.55;;;25.30;47.30;;;;;;4982395;28;20037;-85
2022/07/06 10:58:05;;;;;;;4.32;2.10;;;25.00;47.60;;;;;;4980552;28;20533;-85
2022/07/06 11:00:55;;;;;;;3.53;1.73;;;25.10;48.20;;;;;;4967732;28;20031;-83
2022/07/06 11:03:43;;;;;;;12.25;2.17;;;25.40;48.20;;;;;;4969710;28;20377;-84
2022/07/06 11:06:19;;;;;;;2.97;1.80;;;25.80;47.30;;;;;;4978889;28;20054;-86
2022/07/06 11:08:55;;;;;;;1.85;1.75;;;25.90;47.50;;;;;;4980420;28;20030;-84
2022/07/06 11:11:22;;;;;;;4.47;2.00;;;25.70;47.70;;;;;;4962685;28;20488;-84
2022/07/06 11:13:47;;;;;;;2.25;1.77;;;25.50;48.30;;;;;;4981341;28;20029;-85
2022/07/06 11:16:14;;;;;;;5.95;1.95;;;25.70;47.60;;;;;;4978319;28;20109;-85
2022/07/06 11:18:42;;;;;;;2.47;1.70;;;26.00;47.30;;;;;;5011662;23;20093;-80
2022/07/06 11:21:23;;;;;;;1.88;1.45;;;26.00;46.80;;;;;;4993601;28;20041;-78
2022/07/06 11:23:50;;;;;;;3.65;1.90;;;26.00;46.40;;;;;;5000509;28;20096;-81
2022/07/06 11:26:17;;;;;;;2.35;1.52;;;26.00;46.80;;;;;;4999881;28;20402;-79
2022/07/06 11:28:46;;;;;;;3.13;1.65;;;26.40;46.70;;;;;;4984074;28;20027;-80
2022/07/06 11:31:12;;;;;;;2.45;1.83;;;26.90;45.10;;;;;;4961628;28;20085;-79
2022/07/06 11:33:38;;;;;;;4.18;1.63;;;27.40;43.50;;;;;;4981253;28;20035;-80
2022/07/06 11:36:21;;;;;;;4.88;1.58;;;27.60;44.00;;;;;;4980407;28;20030;-81
2022/07/06 11:38:48;;;;;;;5.00;1.83;;;27.80;44.10;;;;;;4979350;28;20031;-80
2022/07/06 11:41:15;;;;;;;3.58;1.55;;;27.60;43.60;;;;;;4979507;28;20059;-79
2022/07/06 11:43:46;;;;;;;4.03;1.65;;;27.20;44.40;;;;;;4979739;28;20078;-80
2022/07/06 11:46:28;;;;;;;7.53;1.70;;;27.40;43.70;;;;;;4980627;28;20026;-81
2022/07/06 11:48:55;;;;;;;3.42;1.23;;;27.60;43.60;;;;;;4975334;28;20054;-80
2022/07/06 11:51:25;;;;;;;3.50;1.33;;;27.80;43.30;;;;;;4982567;28;20038;-83
2022/07/06 11:53:54;;;;;;;6.22;2.00;;;27.70;43.20;;;;;;4964715;28;20046;-80
2022/07/06 11:56:21;;;;;;;3.05;1.98;;;27.20;44.20;;;;;;4981658;28;20030;-80
2022/07/06 11:58:49;;;;;;;3.70;1.85;;;26.70;44.80;;;;;;4978985;28;20048;-79
2022/07/06 12:01:15;;;;;;;5.53;1.95;;;26.60;45.50;;;;;;4981189;28;20023;-78
2022/07/06 12:03:44;;;;;;;3.17;1.77;;;26.80;44.40;;;;;;4980139;28;20037;-77
2022/07/06 12:06:16;;;;;;;1.48;1.33;;;27.00;44.90;;;;;;4968579;28;20372;-78
2022/07/06 12:08:47;;;;;;;1.85;1.35;;;27.10;44.50;;;;;;4982255;28;20100;-78
2022/07/06 12:11:18;;;;;;;6.28;2.20;;;27.40;43.40;;;;;;4981701;28;20058;-77
2022/07/06 12:13:44;;;;;;;3.85;1.70;;;27.10;44.00;;;;;;4980327;28;20018;-78
2022/07/06 12:16:11;;;;;;;6.60;1.85;;;27.30;44.00;;;;;;4978866;28;20053;-77
2022/07/06 12:18:39;;;;;;;4.22;1.95;;;27.70;43.00;;;;;;4978010;28;20035;-79
2022/07/06 12:21:08;;;;;;;3.08;1.70;;;28.00;42.80;;;;;;4979647;28;20111;-79
2022/07/06 12:23:45;;;;;;;3.42;1.92;;;28.00;42.00;;;;;;4980647;28;20030;-79
2022/07/06 12:26:13;;;;;;;5.90;1.67;;;27.50;42.90;;;;;;4978601;28;20027;-78
2022/07/06 12:28:39;;;;;;;4.28;1.70;;;27.50;42.80;;;;;;4983865;28;20445;-77
2022/07/06 12:31:05;;;;;;;4.18;1.70;;;27.60;42.60;;;;;;4984685;28;20106;-78
2022/07/06 12:33:31;;;;;;;4.18;1.50;;;27.50;42.70;;;;;;4980877;28;20027;-77
2022/07/06 12:36:08;;;;;;;5.15;1.73;;;27.30;43.50;;;;;;4982730;28;20174;-79
2022/07/06 12:38:33;;;;;;;6.15;1.70;;;27.00;42.80;;;;;;4982639;28;20072;-77
2022/07/06 12:41:02;;;;;;;2.47;1.40;;;27.00;42.90;;;;;;4983245;28;20134;-80
2022/07/06 12:43:38;;;;;;;3.67;1.63;;;26.90;43.20;;;;;;4980547;28;20034;-80
2022/07/06 12:46:31;;;;;;;4.57;1.38;;;26.50;43.90;;;;;;4979921;28;20479;-78
2022/07/06 12:48:59;;;;;;;2.05;1.35;;;26.60;44.70;;;;;;4964177;28;20054;-78
2022/07/06 12:51:25;;;;;;;2.95;1.55;;;26.70;44.00;;;;;;4982260;28;20035;-79
2022/07/06 12:53:50;;;;;;;2.85;1.55;;;27.00;43.20;;;;;;4983718;28;20105;-79
2022/07/06 12:56:17;;;;;;;2.35;1.45;;;27.40;43.50;;;;;;4981260;28;20027;-78
2022/07/06 12:59:01;;;;;;;2.60;1.17;;;27.80;40.40;;;;;;4982263;28;20011;-78
2022/07/06 13:01:27;;;;;;;2.00;1.70;;;28.00;41.20;;;;;;4984256;28;20038;-78
2022/07/06 13:03:57;;;;;;;1.88;1.25;;;28.20;41.00;;;;;;4984579;28;20030;-78
2022/07/06 13:06:36;;;;;;;1.67;1.58;;;28.50;40.40;;;;;;4982364;28;20095;-78
2022/07/06 13:09:02;;;;;;;2.25;1.40;;;28.50;40.70;;;;;;4965652;28;20610;-76
2022/07/06 13:11:28;;;;;;;4.55;1.50;;;28.50;40.70;;;;;;4963687;28;20051;-79
2022/07/06 13:13:54;;;;;;;5.90;1.70;;;28.30;40.60;;;;;;4964834;28;20595;-79
2022/07/06 13:16:21;;;;;;;2.97;1.33;;;27.70;41.30;;;;;;4981511;28;20062;-78
2022/07/06 13:18:47;;;;;;;2.03;1.55;;;26.90;42.70;;;;;;4981771;28;20062;-78